Time;durP1;ratioP1;P1;durP2;ratioP2;P2;SDS_P1;SDS_P2;PMS_P1;PMS_P2;Temp;Humidity;BMP_temperature;BMP_pressure;BME280_temperature;BME280_humidity;BME280_pressure;Samples;Min_cycle;Max_cycle;Signal;HPM_P1;HPM_P2
2020/12/28 00:01:33;;;;;;;4.18;3.35;;;6.70;86.20;;;;;;4970246;28;20038;-87
2020/12/28 00:03:59;;;;;;;3.00;2.70;;;6.60;86.20;;;;;;4977957;28;20030;-87
2020/12/28 00:06:25;;;;;;;4.07;3.33;;;6.60;86.30;;;;;;4952951;28;20027;-87
2020/12/28 00:08:50;;;;;;;3.25;2.80;;;6.60;86.20;;;;;;4971884;28;20434;-87
2020/12/28 00:11:17;;;;;;;5.18;4.68;;;6.70;86.40;;;;;;4955131;28;20067;-88
2020/12/28 00:13:43;;;;;;;5.25;4.72;;;6.70;86.30;;;;;;4952134;29;20024;-87
2020/12/28 00:16:11;;;;;;;3.78;3.15;;;6.60;86.20;;;;;;4978411;28;20031;-87
2020/12/28 00:18:37;;;;;;;4.82;4.00;;;6.70;86.30;;;;;;4983543;28;20429;-87
2020/12/28 00:21:02;;;;;;;4.60;3.70;;;6.70;86.20;;;;;;4953561;28;20024;-87
2020/12/28 00:23:28;;;;;;;6.18;4.53;;;6.70;86.20;;;;;;4952905;29;20027;-88
2020/12/28 00:25:53;;;;;;;3.28;2.83;;;6.70;86.30;;;;;;4964622;28;20023;-87
2020/12/28 00:28:19;;;;;;;5.50;4.25;;;6.70;86.20;;;;;;4971825;28;20219;-88
2020/12/28 00:30:44;;;;;;;4.20;3.70;;;6.70;86.10;;;;;;4971500;28;20046;-87
2020/12/28 00:33:10;;;;;;;3.75;3.22;;;6.70;86.10;;;;;;4972123;28;20030;-87
2020/12/28 00:35:35;;;;;;;8.57;7.68;;;6.80;86.20;;;;;;4959973;28;20038;-88
2020/12/28 00:38:01;;;;;;;5.75;4.97;;;6.80;86.10;;;;;;4952972;29;20052;-87
2020/12/28 00:40:26;;;;;;;5.43;4.57;;;6.70;86.00;;;;;;4958496;28;20023;-88
2020/12/28 00:42:52;;;;;;;7.00;5.97;;;6.70;86.10;;;;;;4971920;28;20019;-87
2020/12/28 00:45:17;;;;;;;6.97;5.68;;;6.70;86.10;;;;;;4971048;28;20074;-86
2020/12/28 00:47:43;;;;;;;6.03;4.90;;;6.70;86.10;;;;;;4961573;28;20023;-86
2020/12/28 00:50:08;;;;;;;7.00;5.85;;;6.70;86.20;;;;;;4960179;28;20413;-86
2020/12/28 00:52:34;;;;;;;4.72;3.88;;;6.70;86.10;;;;;;4952011;29;20023;-86
2020/12/28 00:55:00;;;;;;;4.53;3.85;;;6.80;86.20;;;;;;4953230;28;20031;-86
2020/12/28 00:57:25;;;;;;;6.80;5.93;;;6.80;86.10;;;;;;4978825;28;20484;-87
2020/12/28 00:59:51;;;;;;;4.32;3.80;;;6.80;86.00;;;;;;4976407;28;20062;-86
2020/12/28 01:02:16;;;;;;;5.03;4.10;;;6.80;86.00;;;;;;4950961;28;20074;-86
2020/12/28 01:04:42;;;;;;;3.92;3.53;;;6.80;86.00;;;;;;4952551;28;20624;-86
2020/12/28 01:07:07;;;;;;;4.15;3.58;;;6.90;86.00;;;;;;4950614;28;20028;-87
2020/12/28 01:09:33;;;;;;;5.45;3.50;;;6.90;86.00;;;;;;4951647;29;20046;-86
2020/12/28 01:11:58;;;;;;;8.10;6.03;;;6.90;85.80;;;;;;4967185;28;20030;-86
2020/12/28 01:14:24;;;;;;;9.60;7.53;;;6.90;85.70;;;;;;4971450;28;20034;-86
2020/12/28 01:16:49;;;;;;;5.22;4.00;;;6.80;85.60;;;;;;4957687;28;20095;-87
2020/12/28 01:19:15;;;;;;;4.60;3.72;;;6.80;85.80;;;;;;4963563;28;20500;-87
2020/12/28 01:21:40;;;;;;;4.57;3.92;;;6.90;85.80;;;;;;4958021;28;20107;-87
2020/12/28 01:24:06;;;;;;;7.88;6.53;;;6.90;85.80;;;;;;4952369;29;20027;-87
2020/12/28 01:26:31;;;;;;;5.40;4.20;;;6.80;85.60;;;;;;4952791;28;20110;-88
2020/12/28 01:28:57;;;;;;;5.35;4.50;;;6.80;85.70;;;;;;4955789;29;20028;-88
2020/12/28 01:31:23;;;;;;;3.17;2.85;;;6.80;85.70;;;;;;4963980;28;20113;-87
2020/12/28 01:33:48;;;;;;;5.82;4.85;;;6.90;86.20;;;;;;4961273;28;20030;-86
2020/12/28 01:36:14;;;;;;;4.07;3.67;;;6.80;86.30;;;;;;4955721;28;20027;-87
2020/12/28 01:38:39;;;;;;;5.40;4.45;;;6.90;85.80;;;;;;4955191;29;20102;-86
2020/12/28 01:41:05;;;;;;;5.35;4.35;;;6.90;85.80;;;;;;4955684;28;20035;-87
2020/12/28 01:43:31;;;;;;;5.22;3.80;;;6.80;85.70;;;;;;4955545;29;20031;-86
2020/12/28 01:46:01;;;;;;;6.55;4.70;;;6.80;85.70;;;;;;4967475;28;20027;-87
2020/12/28 01:48:29;;;;;;;6.25;4.90;;;6.80;85.70;;;;;;4974523;28;20049;-86
2020/12/28 01:50:56;;;;;;;5.80;4.90;;;6.70;85.50;;;;;;4970408;28;20031;-85
2020/12/28 01:53:22;;;;;;;5.85;4.90;;;6.70;85.70;;;;;;4955525;29;20031;-86
2020/12/28 01:55:51;;;;;;;6.22;5.43;;;6.60;85.70;;;;;;4955547;28;20051;-85
2020/12/28 01:58:16;;;;;;;5.35;4.85;;;6.60;85.80;;;;;;4982864;28;20089;-86
2020/12/28 02:00:42;;;;;;;6.00;4.97;;;6.50;85.80;;;;;;4990232;28;20031;-87
2020/12/28 02:03:08;;;;;;;4.95;4.38;;;6.50;85.90;;;;;;4973920;28;20038;-86
2020/12/28 02:05:34;;;;;;;3.50;3.20;;;6.50;86.00;;;;;;4972664;28;20042;-87
2020/12/28 02:08:01;;;;;;;3.95;3.40;;;6.50;86.00;;;;;;4973680;28;20023;-87
2020/12/28 02:10:27;;;;;;;5.60;4.60;;;6.60;85.90;;;;;;4974878;28;20041;-88
2020/12/28 02:12:52;;;;;;;4.57;3.15;;;6.60;85.80;;;;;;4959387;28;20023;-87
2020/12/28 02:15:18;;;;;;;3.67;3.08;;;6.60;85.90;;;;;;4955334;28;20654;-89
2020/12/28 02:17:44;;;;;;;4.47;4.07;;;6.60;85.90;;;;;;4967947;28;20045;-88
2020/12/28 02:20:09;;;;;;;3.83;3.13;;;6.60;85.80;;;;;;4974414;28;20022;-88
2020/12/28 02:22:35;;;;;;;3.47;3.17;;;6.60;85.90;;;;;;4962899;28;20439;-89
2020/12/28 02:25:01;;;;;;;5.82;4.38;;;6.60;85.90;;;;;;4954049;29;20116;-88
2020/12/28 02:27:26;;;;;;;7.38;4.75;;;6.50;85.70;;;;;;4954348;28;20027;-88
2020/12/28 02:29:52;;;;;;;7.40;5.75;;;6.50;85.70;;;;;;4955883;28;20042;-87
2020/12/28 02:32:17;;;;;;;6.05;5.32;;;6.40;85.60;;;;;;4965910;28;20670;-88
2020/12/28 02:34:43;;;;;;;5.50;3.85;;;6.30;85.60;;;;;;4954707;29;20099;-88
2020/12/28 02:37:08;;;;;;;5.68;4.25;;;6.30;85.80;;;;;;4960789;28;20035;-88
2020/12/28 02:39:34;;;;;;;3.63;3.22;;;6.20;85.80;;;;;;4972558;28;20019;-87
2020/12/28 02:41:59;;;;;;;4.80;3.40;;;6.30;86.00;;;;;;4973776;28;20027;-88
2020/12/28 02:44:25;;;;;;;4.63;3.78;;;6.30;86.00;;;;;;4974052;28;20023;-87
2020/12/28 02:46:50;;;;;;;4.35;3.80;;;6.30;86.00;;;;;;4973304;28;20042;-88
2020/12/28 02:49:16;;;;;;;6.32;4.90;;;6.30;86.00;;;;;;4972331;28;20076;-87
2020/12/28 02:51:41;;;;;;;4.63;4.18;;;6.30;86.00;;;;;;4968043;28;20076;-88
2020/12/28 02:54:07;;;;;;;4.20;3.60;;;6.30;86.00;;;;;;4974405;28;20030;-87
2020/12/28 02:56:32;;;;;;;4.68;4.18;;;6.20;86.00;;;;;;4974118;28;20035;-87
2020/12/28 02:58:58;;;;;;;4.50;3.92;;;6.20;86.00;;;;;;4972284;28;20026;-88
2020/12/28 03:01:23;;;;;;;4.18;3.35;;;6.20;86.10;;;;;;4972438;28;20037;-88
2020/12/28 03:03:49;;;;;;;4.60;4.10;;;6.30;86.20;;;;;;4973280;28;20030;-87
2020/12/28 03:06:14;;;;;;;5.68;5.07;;;6.20;86.10;;;;;;4967198;28;20533;-88
2020/12/28 03:08:40;;;;;;;5.43;3.22;;;6.20;86.10;;;;;;4954039;28;20525;-88
2020/12/28 03:11:05;;;;;;;7.05;4.65;;;6.30;86.30;;;;;;4954352;29;20043;-88
2020/12/28 03:13:31;;;;;;;3.88;3.38;;;6.20;86.20;;;;;;4953855;28;20035;-88
2020/12/28 03:15:56;;;;;;;5.43;3.65;;;6.20;86.10;;;;;;4954799;29;20106;-87
2020/12/28 03:18:22;;;;;;;4.22;3.67;;;6.30;86.20;;;;;;4964508;28;20404;-88
2020/12/28 03:20:47;;;;;;;4.72;3.70;;;6.30;86.10;;;;;;4967390;28;20539;-88
2020/12/28 03:23:13;;;;;;;4.20;3.50;;;6.30;86.00;;;;;;4954374;28;20516;-88
2020/12/28 03:25:38;;;;;;;5.40;4.38;;;6.30;85.90;;;;;;4953190;29;20067;-88
2020/12/28 03:28:04;;;;;;;7.05;6.10;;;6.30;85.80;;;;;;4954311;28;20064;-88
2020/12/28 03:30:30;;;;;;;9.65;5.95;;;6.30;85.50;;;;;;4954111;29;20130;-88
2020/12/28 03:32:55;;;;;;;5.03;4.10;;;6.20;85.20;;;;;;4971484;28;20087;-88
2020/12/28 03:35:21;;;;;;;5.55;4.03;;;6.20;85.90;;;;;;4988140;28;20037;-88
2020/12/28 03:37:46;;;;;;;9.27;6.32;;;6.20;85.40;;;;;;4974591;28;20115;-87
2020/12/28 03:40:12;;;;;;;7.18;5.50;;;6.20;85.30;;;;;;4953258;29;20078;-89
2020/12/28 03:42:37;;;;;;;5.75;4.30;;;6.20;85.20;;;;;;4955332;28;20023;-88
2020/12/28 03:45:03;;;;;;;6.07;4.68;;;6.20;85.20;;;;;;4972464;28;20034;-88
2020/12/28 03:47:29;;;;;;;5.13;4.20;;;6.20;85.30;;;;;;4974056;28;20030;-87
2020/12/28 03:49:54;;;;;;;5.78;4.60;;;6.20;85.30;;;;;;4974891;28;20259;-88
2020/12/28 03:52:20;;;;;;;6.35;4.38;;;6.20;85.20;;;;;;4978481;28;20023;-87
2020/12/28 03:54:46;;;;;;;6.80;4.80;;;6.10;85.10;;;;;;4961672;28;20110;-88
2020/12/28 03:57:12;;;;;;;7.18;4.03;;;6.20;85.10;;;;;;4958726;29;20019;-88
2020/12/28 03:59:38;;;;;;;5.85;3.42;;;6.10;84.90;;;;;;4987996;28;20025;-88
2020/12/28 04:02:04;;;;;;;6.22;4.55;;;6.10;84.90;;;;;;4998207;28;20491;-87
2020/12/28 04:04:29;;;;;;;4.70;3.33;;;6.10;84.90;;;;;;4963132;28;20054;-87
2020/12/28 04:06:55;;;;;;;6.38;4.18;;;6.20;85.00;;;;;;4959635;29;20031;-87
2020/12/28 04:09:20;;;;;;;7.75;5.65;;;6.20;84.90;;;;;;4970900;28;20400;-87
2020/12/28 04:11:46;;;;;;;6.75;5.43;;;6.20;84.80;;;;;;4971170;28;20039;-87
2020/12/28 04:14:11;;;;;;;7.35;5.40;;;6.10;84.60;;;;;;4970791;28;20049;-88
2020/12/28 04:16:37;;;;;;;6.15;4.38;;;6.00;84.70;;;;;;4987362;28;20034;-88
2020/12/28 04:19:02;;;;;;;6.18;4.55;;;6.10;84.80;;;;;;4970421;28;20034;-87
2020/12/28 04:21:28;;;;;;;5.60;4.03;;;6.10;84.80;;;;;;4959956;28;20137;-87
2020/12/28 04:23:53;;;;;;;5.85;4.18;;;6.10;84.80;;;;;;4963465;28;20125;-87
2020/12/28 04:26:19;;;;;;;3.90;2.75;;;6.10;84.80;;;;;;4965937;28;20035;-87
2020/12/28 04:28:45;;;;;;;4.70;2.97;;;6.20;84.80;;;;;;4952873;28;20374;-87
2020/12/28 04:31:11;;;;;;;5.18;3.40;;;6.20;84.80;;;;;;4951124;29;20043;-86
2020/12/28 04:33:37;;;;;;;6.57;3.67;;;6.20;84.80;;;;;;4953031;28;20026;-87
2020/12/28 04:36:04;;;;;;;5.65;3.85;;;6.30;84.80;;;;;;4953074;29;20031;-87
2020/12/28 04:38:30;;;;;;;5.22;3.70;;;6.30;84.70;;;;;;4952682;28;20027;-87
2020/12/28 04:40:55;;;;;;;6.30;4.45;;;6.30;84.60;;;;;;4958754;28;20030;-88
2020/12/28 04:43:24;;;;;;;6.55;5.03;;;6.30;84.50;;;;;;4955336;28;20035;-87
2020/12/28 04:45:50;;;;;;;5.47;4.28;;;6.20;84.30;;;;;;4971922;28;20033;-87
2020/12/28 04:48:16;;;;;;;7.50;4.53;;;6.20;84.30;;;;;;4971820;28;20027;-87
2020/12/28 04:50:41;;;;;;;6.90;5.20;;;6.20;84.40;;;;;;4952962;28;20039;-87
2020/12/28 04:53:07;;;;;;;6.30;5.10;;;6.10;84.20;;;;;;4950876;29;20430;-87
2020/12/28 04:55:33;;;;;;;5.20;3.67;;;6.10;84.30;;;;;;4982325;28;20037;-87
2020/12/28 04:57:59;;;;;;;7.97;5.43;;;6.10;84.40;;;;;;4977044;28;20473;-88
2020/12/28 05:00:25;;;;;;;5.07;3.80;;;6.10;84.40;;;;;;4952382;28;20039;-88
2020/12/28 05:02:51;;;;;;;5.68;3.83;;;6.10;84.50;;;;;;4954632;28;20710;-87
2020/12/28 05:05:17;;;;;;;4.85;3.40;;;6.10;84.50;;;;;;4969695;28;20130;-88
2020/12/28 05:07:49;;;;;;;8.80;5.20;;;6.10;84.50;;;;;;4976509;28;20469;-88
2020/12/28 05:10:23;;;;;;;6.63;3.88;;;6.10;84.50;;;;;;4973798;28;20042;-88
2020/12/28 05:12:50;;;;;;;4.95;3.85;;;6.10;84.60;;;;;;4964995;28;20038;-88
2020/12/28 05:15:15;;;;;;;4.80;3.40;;;6.10;84.50;;;;;;4967525;28;20051;-89
2020/12/28 05:17:41;;;;;;;6.03;3.60;;;6.10;84.60;;;;;;4976527;28;20068;-88
2020/12/28 05:20:06;;;;;;;4.68;3.72;;;6.10;84.50;;;;;;4965801;28;20175;-88
2020/12/28 05:22:32;;;;;;;6.30;4.13;;;6.00;84.40;;;;;;4958003;28;20023;-88
2020/12/28 05:24:58;;;;;;;4.55;3.20;;;6.00;84.50;;;;;;4967506;28;20050;-87
2020/12/28 05:27:24;;;;;;;5.85;3.85;;;6.00;84.60;;;;;;4965923;28;20050;-88
2020/12/28 05:29:51;;;;;;;4.05;3.10;;;6.00;84.40;;;;;;4967855;28;20547;-87
2020/12/28 05:32:17;;;;;;;4.07;3.13;;;6.00;84.60;;;;;;4956132;29;20481;-88
2020/12/28 05:34:45;;;;;;;4.88;3.67;;;6.00;84.50;;;;;;4959598;28;20030;-88
2020/12/28 05:37:14;;;;;;;5.90;4.03;;;6.00;84.40;;;;;;4969115;28;20393;-87
2020/12/28 05:39:41;;;;;;;5.53;3.80;;;5.90;84.40;;;;;;4955389;28;20026;-88
2020/12/28 05:42:11;;;;;;;3.53;2.42;;;5.90;84.40;;;;;;4966312;28;20035;-88
2020/12/28 05:44:38;;;;;;;4.68;3.53;;;5.90;84.50;;;;;;4971857;28;20047;-88
2020/12/28 05:47:06;;;;;;;6.10;4.28;;;5.90;84.50;;;;;;4962876;28;20062;-87
2020/12/28 05:49:40;;;;;;;6.95;4.03;;;5.80;84.30;;;;;;4971629;28;20066;-87
2020/12/28 05:52:07;;;;;;;6.45;3.85;;;5.90;84.50;;;;;;4955579;29;20046;-87
2020/12/28 05:54:34;;;;;;;4.35;3.03;;;5.80;84.40;;;;;;4956449;28;20015;-87
2020/12/28 05:57:00;;;;;;;4.53;3.45;;;5.80;84.60;;;;;;4991766;28;20026;-88
2020/12/28 05:59:26;;;;;;;5.95;3.78;;;5.90;84.60;;;;;;4993930;28;20480;-88
2020/12/28 06:01:52;;;;;;;4.43;2.58;;;5.90;84.50;;;;;;4973623;28;20121;-88
2020/12/28 06:04:19;;;;;;;3.80;2.70;;;5.90;84.50;;;;;;4974991;28;20054;-87
2020/12/28 06:06:46;;;;;;;3.00;1.98;;;6.00;84.60;;;;;;4957227;28;20114;-88
2020/12/28 06:09:15;;;;;;;4.50;3.05;;;6.00;84.50;;;;;;4956209;28;20039;-88
2020/12/28 06:11:41;;;;;;;3.83;2.67;;;6.00;84.40;;;;;;4974059;28;20031;-87
2020/12/28 06:14:18;;;;;;;4.38;2.90;;;6.00;84.50;;;;;;4974491;28;20032;-87
2020/12/28 06:16:45;;;;;;;7.05;3.30;;;6.10;84.50;;;;;;4972670;28;20606;-88
2020/12/28 06:19:20;;;;;;;5.40;3.70;;;6.00;84.50;;;;;;4974043;28;20027;-87
2020/12/28 06:21:46;;;;;;;4.95;3.25;;;5.90;84.60;;;;;;4957819;28;20039;-87
2020/12/28 06:24:11;;;;;;;5.88;3.58;;;5.80;84.80;;;;;;4954058;28;20026;-87
2020/12/28 06:26:37;;;;;;;4.50;3.13;;;5.80;85.00;;;;;;4968335;28;20500;-87
2020/12/28 06:29:06;;;;;;;3.47;3.05;;;5.80;85.80;;;;;;4973927;28;20617;-86
2020/12/28 06:31:34;;;;;;;5.35;4.13;;;5.80;85.20;;;;;;4970635;28;20681;-85
2020/12/28 06:33:59;;;;;;;6.88;4.35;;;5.80;85.20;;;;;;4974044;28;20019;-85
2020/12/28 06:36:25;;;;;;;7.13;4.65;;;5.70;85.20;;;;;;4962809;28;20363;-85
2020/12/28 06:38:55;;;;;;;6.82;5.35;;;5.70;85.40;;;;;;4960482;28;20031;-85
2020/12/28 06:41:29;;;;;;;6.68;5.07;;;5.70;85.50;;;;;;4964016;28;20031;-86
2020/12/28 06:43:58;;;;;;;6.43;4.95;;;5.60;85.50;;;;;;4957780;28;20023;-87
2020/12/28 06:46:24;;;;;;;7.95;4.97;;;5.60;85.70;;;;;;4969961;28;20146;-86
2020/12/28 06:48:50;;;;;;;7.10;5.75;;;5.60;85.80;;;;;;4968899;28;20057;-85
2020/12/28 06:51:16;;;;;;;8.57;5.93;;;5.50;85.90;;;;;;4957526;28;20058;-87
2020/12/28 06:53:42;;;;;;;4.38;3.60;;;5.50;86.10;;;;;;4964298;28;20034;-89
2020/12/28 06:56:09;;;;;;;7.63;5.47;;;5.50;86.20;;;;;;4974264;28;20019;-89
2020/12/28 06:58:36;;;;;;;6.80;5.35;;;5.50;86.10;;;;;;4980929;28;20039;-89
2020/12/28 07:01:03;;;;;;;6.22;4.93;;;5.50;86.00;;;;;;4962173;28;20022;-93
2020/12/28 07:03:30;;;;;;;8.07;5.82;;;5.50;86.00;;;;;;4974680;28;20093;-95
2020/12/28 07:06:04;;;;;;;7.38;5.68;;;5.50;85.80;;;;;;4974135;28;20019;-96
2020/12/28 07:08:29;;;;;;;4.70;3.42;;;5.50;85.80;;;;;;4954270;28;20031;-91
2020/12/28 07:10:57;;;;;;;5.00;3.70;;;5.50;85.70;;;;;;4966628;28;20511;-92
2020/12/28 07:13:23;;;;;;;5.32;3.35;;;5.60;85.60;;;;;;4959386;28;20016;-92
2020/12/28 07:15:48;;;;;;;6.32;4.03;;;5.60;85.60;;;;;;4955586;28;20035;-91
2020/12/28 07:18:14;;;;;;;6.03;4.40;;;5.70;85.60;;;;;;4959346;28;20033;-92
2020/12/28 07:20:39;;;;;;;4.15;3.08;;;5.60;85.40;;;;;;4959516;28;20027;-91
2020/12/28 07:23:05;;;;;;;3.88;3.03;;;5.60;85.40;;;;;;4954474;28;20027;-92
2020/12/28 07:25:31;;;;;;;5.60;3.50;;;5.70;85.40;;;;;;4955866;28;20080;-91
2020/12/28 07:27:57;;;;;;;4.28;3.13;;;5.70;85.30;;;;;;4962068;28;20054;-91
2020/12/28 07:30:23;;;;;;;4.72;3.25;;;5.70;85.30;;;;;;4958283;28;20705;-91
2020/12/28 07:32:56;;;;;;;6.05;3.45;;;5.70;85.10;;;;;;4972619;28;20122;-91
2020/12/28 07:35:22;;;;;;;3.95;3.03;;;5.80;85.10;;;;;;4974180;28;20031;-92
2020/12/28 07:37:49;;;;;;;4.60;3.00;;;5.90;85.00;;;;;;4968925;28;20061;-91
2020/12/28 07:40:15;;;;;;;8.73;4.72;;;5.80;84.90;;;;;;4958176;28;20023;-91
2020/12/28 07:42:41;;;;;;;5.50;4.07;;;5.90;84.70;;;;;;4990563;28;20010;-91
2020/12/28 07:45:09;;;;;;;5.70;3.13;;;5.80;84.60;;;;;;4977193;28;20038;-93
2020/12/28 07:48:00;;;;;;;6.85;4.28;;;5.80;84.70;;;;;;4979482;28;20051;-92
2020/12/28 07:50:26;;;;;;;6.22;4.38;;;5.80;84.60;;;;;;4965774;28;20047;-91
2020/12/28 07:53:04;;;;;;;9.23;6.30;;;5.80;84.60;;;;;;4973179;29;20019;-92
2020/12/28 07:55:39;;;;;;;5.47;3.67;;;5.80;84.50;;;;;;4971603;28;20030;-87
2020/12/28 07:58:07;;;;;;;6.75;4.00;;;5.80;84.60;;;;;;4982083;28;20022;-88
2020/12/28 08:00:48;;;;;;;6.45;4.70;;;5.80;84.60;;;;;;4964103;28;20027;-87
2020/12/28 08:03:27;;;;;;;6.72;5.05;;;5.70;84.50;;;;;;4953967;28;20042;-86
2020/12/28 08:05:54;;;;;;;6.22;4.03;;;5.60;84.80;;;;;;4961205;28;20115;-88
2020/12/28 08:08:24;;;;;;;5.32;3.70;;;5.50;85.00;;;;;;4977030;28;20026;-87
2020/12/28 08:10:58;;;;;;;6.75;3.88;;;5.50;85.10;;;;;;4970861;28;20049;-89
2020/12/28 08:13:26;;;;;;;6.10;4.20;;;5.40;85.10;;;;;;4952977;28;20061;-88
2020/12/28 08:15:52;;;;;;;4.60;3.53;;;5.40;85.20;;;;;;4962735;28;20028;-88
2020/12/28 08:18:17;;;;;;;6.15;4.32;;;5.40;85.30;;;;;;4962030;28;20034;-87
2020/12/28 08:20:54;;;;;;;4.72;3.40;;;5.30;85.20;;;;;;4967353;28;20026;-88
2020/12/28 08:26:26;;;;;;;6.22;3.83;;;5.30;85.50;;;;;;4969526;28;20083;-88
2020/12/28 08:29:01;;;;;;;5.07;3.33;;;5.30;85.50;;;;;;4981218;28;20030;-86
2020/12/28 08:31:34;;;;;;;4.90;3.05;;;5.40;85.50;;;;;;4979614;28;20045;-88
2020/12/28 08:34:14;;;;;;;2.75;2.30;;;5.40;85.50;;;;;;4985109;28;20028;-88
2020/12/28 08:36:49;;;;;;;5.10;3.38;;;5.40;85.40;;;;;;4990055;28;20434;-86
2020/12/28 08:39:24;;;;;;;4.28;3.47;;;5.30;85.30;;;;;;4953511;28;20109;-88
2020/12/28 08:41:57;;;;;;;4.72;3.30;;;5.30;85.60;;;;;;4969841;28;20119;-87
2020/12/28 08:44:33;;;;;;;;;;;5.30;85.60;;;;;;4990456;28;20515;-87
2020/12/28 08:47:00;;;;;;;7.15;3.58;;;5.30;85.50;;;;;;4974240;28;20012;-86
2020/12/28 08:49:28;;;;;;;3.10;2.60;;;5.30;85.50;;;;;;4988500;28;20026;-89
2020/12/28 08:51:54;;;;;;;3.58;2.60;;;5.30;85.60;;;;;;4979803;28;20068;-87
2020/12/28 08:54:27;;;;;;;3.50;2.45;;;5.30;85.60;;;;;;4975209;28;20058;-85
2020/12/28 08:56:53;;;;;;;4.15;3.53;;;5.30;85.60;;;;;;4972786;28;20025;-86
2020/12/28 08:59:19;;;;;;;2.92;2.40;;;5.30;85.40;;;;;;4967425;28;20082;-86
2020/12/28 09:01:50;;;;;;;4.97;3.03;;;5.30;85.50;;;;;;4961506;28;20039;-86
2020/12/28 09:04:16;;;;;;;4.38;3.05;;;5.40;85.60;;;;;;4966740;28;20026;-85
2020/12/28 09:06:41;;;;;;;3.03;2.70;;;5.40;85.50;;;;;;4953233;28;20027;-87
2020/12/28 09:09:07;;;;;;;3.58;2.35;;;5.50;85.50;;;;;;4951118;28;20034;-85
2020/12/28 09:11:33;;;;;;;4.53;3.15;;;5.50;85.30;;;;;;4961239;28;20146;-85
2020/12/28 09:13:58;;;;;;;3.72;2.72;;;5.60;85.30;;;;;;4972301;28;20027;-85
2020/12/28 09:16:24;;;;;;;5.68;3.20;;;5.60;85.10;;;;;;4983003;28;20157;-86
2020/12/28 09:18:50;;;;;;;3.03;2.47;;;5.60;84.90;;;;;;4974580;28;20668;-84
2020/12/28 09:21:15;;;;;;;4.40;3.40;;;5.50;84.90;;;;;;4979587;28;20467;-84
2020/12/28 09:23:41;;;;;;;4.25;2.80;;;5.50;84.90;;;;;;4977656;28;20038;-86
2020/12/28 09:26:07;;;;;;;4.82;4.00;;;5.50;85.00;;;;;;4983102;28;20022;-84
2020/12/28 09:28:32;;;;;;;5.38;3.92;;;5.40;85.00;;;;;;4981561;28;20179;-85
2020/12/28 09:30:58;;;;;;;7.47;3.90;;;5.40;85.50;;;;;;4982557;28;20123;-86
2020/12/28 09:33:23;;;;;;;4.65;3.13;;;5.30;85.00;;;;;;4970532;28;20030;-87
2020/12/28 09:35:49;;;;;;;5.63;3.95;;;5.30;85.20;;;;;;4968690;28;20126;-87
2020/12/28 09:38:14;;;;;;;5.30;3.63;;;5.30;85.20;;;;;;4962127;28;20027;-86
2020/12/28 09:40:40;;;;;;;6.95;3.75;;;5.30;86.00;;;;;;4954356;28;20117;-86
2020/12/28 09:43:05;;;;;;;4.72;3.60;;;5.40;85.40;;;;;;4968782;28;20023;-86
2020/12/28 09:45:37;;;;;;;4.20;3.15;;;5.40;85.30;;;;;;4969594;28;20038;-86
2020/12/28 09:48:06;;;;;;;5.35;3.22;;;5.30;85.30;;;;;;4959482;28;20023;-86
2020/12/28 09:50:32;;;;;;;3.90;3.10;;;5.30;85.40;;;;;;4964650;28;20046;-86
2020/12/28 09:52:58;;;;;;;4.90;3.33;;;5.30;85.50;;;;;;4965628;28;20385;-85
2020/12/28 09:55:24;;;;;;;6.10;3.67;;;5.30;85.50;;;;;;4974486;28;20030;-86
2020/12/28 09:57:49;;;;;;;4.32;3.40;;;5.30;85.60;;;;;;4980794;28;20014;-85
2020/12/28 10:00:15;;;;;;;3.88;2.80;;;5.30;85.70;;;;;;4990389;28;20365;-86
2020/12/28 10:02:42;;;;;;;5.43;3.20;;;5.40;85.70;;;;;;4989359;28;20056;-86
2020/12/28 10:05:09;;;;;;;3.50;2.80;;;5.50;85.70;;;;;;4980454;28;20026;-86
2020/12/28 10:07:35;;;;;;;4.50;2.53;;;5.50;85.50;;;;;;4990413;28;20101;-86
2020/12/28 10:10:02;;;;;;;4.07;2.70;;;5.60;85.40;;;;;;4981111;28;20023;-85
2020/12/28 10:12:28;;;;;;;4.82;3.15;;;5.60;85.30;;;;;;4992466;28;20089;-85
2020/12/28 10:14:53;;;;;;;3.63;2.53;;;5.70;85.10;;;;;;4983232;28;20026;-86
2020/12/28 10:17:19;;;;;;;3.50;2.67;;;5.70;84.90;;;;;;4989457;28;20042;-86
2020/12/28 10:19:45;;;;;;;3.78;2.50;;;5.70;84.80;;;;;;4986719;28;20031;-86
2020/12/28 10:22:12;;;;;;;3.53;2.78;;;5.80;84.60;;;;;;4981462;28;20022;-86
2020/12/28 10:24:39;;;;;;;3.50;2.58;;;5.80;84.50;;;;;;4965786;28;20043;-88
2020/12/28 10:27:04;;;;;;;7.43;4.10;;;5.90;84.30;;;;;;4983943;28;20538;-87
2020/12/28 10:29:30;;;;;;;5.15;2.88;;;6.00;84.00;;;;;;4988641;28;20022;-85
2020/12/28 10:31:56;;;;;;;5.10;2.83;;;6.00;83.80;;;;;;4985298;28;20038;-85
2020/12/28 10:34:25;;;;;;;4.10;2.63;;;6.00;83.70;;;;;;4976584;28;20019;-85
2020/12/28 10:36:50;;;;;;;4.93;2.63;;;6.00;83.60;;;;;;4988681;28;20118;-85
2020/12/28 10:39:16;;;;;;;5.05;2.75;;;6.10;83.60;;;;;;4989703;28;20487;-88
2020/12/28 10:41:42;;;;;;;3.65;2.70;;;6.00;83.20;;;;;;4990989;28;20030;-88
2020/12/28 10:44:08;;;;;;;3.88;2.38;;;6.10;83.30;;;;;;5004804;23;20069;-87
2020/12/28 10:47:04;;;;;;;3.72;2.60;;;6.00;83.30;;;;;;5003761;28;20101;-86
2020/12/28 10:49:30;;;;;;;4.97;2.50;;;6.00;83.30;;;;;;4985024;28;20464;-88
2020/12/28 10:51:55;;;;;;;3.58;2.10;;;6.10;83.20;;;;;;5006256;28;20034;-87
2020/12/28 10:54:21;;;;;;;3.58;2.28;;;6.10;83.10;;;;;;4999181;28;20053;-87
2020/12/28 10:59:49;;;;;;;3.45;2.20;;;6.20;82.80;;;;;;4998830;28;20045;-86
2020/12/28 11:02:15;;;;;;;2.45;2.13;;;6.10;82.70;;;;;;4995400;28;20031;-84
2020/12/28 11:04:42;;;;;;;3.85;1.95;;;6.10;82.60;;;;;;4972214;28;20069;-86
2020/12/28 11:07:08;;;;;;;4.65;2.30;;;6.20;82.50;;;;;;4995478;28;20129;-85
2020/12/28 11:12:09;;;;;;;1.98;1.70;;;6.20;82.30;;;;;;5188786;23;20053;-85
2020/12/28 11:14:35;;;;;;;4.32;2.30;;;6.20;82.20;;;;;;4985636;28;20502;-86
2020/12/28 11:17:02;;;;;;;2.70;1.60;;;6.20;82.00;;;;;;4992223;28;20022;-87
2020/12/28 11:19:30;;;;;;;3.25;2.00;;;6.20;82.10;;;;;;5099735;23;20057;-88
2020/12/28 11:21:56;;;;;;;2.55;1.92;;;6.10;82.10;;;;;;5028143;28;20029;-88
2020/12/28 11:24:21;;;;;;;2.08;1.80;;;6.10;82.10;;;;;;5011564;28;20022;-88
2020/12/28 11:26:48;;;;;;;4.13;2.25;;;6.10;82.10;;;;;;5011504;28;20433;-86
2020/12/28 11:29:14;;;;;;;2.08;1.77;;;6.00;81.80;;;;;;5011828;28;20026;-87
2020/12/28 11:31:43;;;;;;;2.58;1.90;;;5.90;81.70;;;;;;5432962;23;20050;-89
2020/12/28 11:34:09;;;;;;;2.65;1.95;;;6.00;82.10;;;;;;5012587;28;20059;-87
2020/12/28 11:36:53;;;;;;;3.95;2.38;;;6.10;82.20;;;;;;5011763;28;20491;-87
2020/12/28 11:39:19;;;;;;;3.88;2.30;;;6.00;81.90;;;;;;5039807;23;20045;-86
2020/12/28 11:41:44;;;;;;;4.15;2.38;;;6.00;81.90;;;;;;5028257;28;20288;-87
2020/12/28 11:44:28;;;;;;;4.60;2.60;;;6.00;82.00;;;;;;5013382;28;20038;-86
2020/12/28 11:46:55;;;;;;;3.22;2.05;;;6.00;81.80;;;;;;5026972;28;20128;-86
2020/12/28 11:49:40;;;;;;;;;;;;;;;;;;;;;
2020/12/28 11:52:06;;;;;;;2.78;1.90;;;6.20;82.00;;;;;;4990190;28;20046;-84
2020/12/28 11:54:32;;;;;;;2.60;1.70;;;6.20;81.80;;;;;;5011122;28;20105;-85
2020/12/28 11:56:57;;;;;;;3.47;2.20;;;6.20;81.70;;;;;;5012761;28;20030;-87
2020/12/28 11:59:23;;;;;;;2.40;2.00;;;6.10;81.20;;;;;;5014015;28;20022;-88
2020/12/28 12:01:49;;;;;;;2.20;2.00;;;6.10;81.40;;;;;;5007727;28;20126;-88
2020/12/28 12:04:15;;;;;;;2.70;2.13;;;6.10;81.30;;;;;;4997004;28;20211;-89
2020/12/28 12:06:41;;;;;;;5.22;2.17;;;6.10;81.20;;;;;;4997977;28;20022;-88
2020/12/28 12:09:11;;;;;;;4.03;2.28;;;6.10;81.20;;;;;;5013441;28;20053;-87
2020/12/28 12:11:43;;;;;;;2.35;1.92;;;6.20;81.30;;;;;;4997773;28;20457;-86
2020/12/28 12:14:09;;;;;;;3.25;2.10;;;6.20;81.10;;;;;;5011826;28;20370;-88
2020/12/28 12:16:35;;;;;;;3.40;1.77;;;6.20;80.70;;;;;;4994807;28;20026;-89
2020/12/28 12:19:00;;;;;;;3.15;2.25;;;6.20;80.80;;;;;;4996009;28;20038;-87
2020/12/28 12:21:26;;;;;;;2.53;1.80;;;6.20;80.70;;;;;;4991244;28;20022;-86
2020/12/28 12:23:52;;;;;;;4.00;2.00;;;6.20;80.50;;;;;;4991921;28;20084;-87
2020/12/28 12:26:19;;;;;;;4.53;2.35;;;6.20;80.60;;;;;;5009789;28;20061;-87
2020/12/28 12:28:45;;;;;;;3.30;1.98;;;6.20;80.30;;;;;;5004552;28;20044;-87
2020/12/28 12:31:15;;;;;;;2.13;1.73;;;6.10;80.20;;;;;;4987587;28;20046;-87
2020/12/28 12:33:41;;;;;;;3.47;1.85;;;6.20;80.20;;;;;;4988500;28;20392;-87
2020/12/28 12:36:07;;;;;;;4.68;2.42;;;6.10;80.40;;;;;;5005366;28;20030;-86
2020/12/28 12:38:33;;;;;;;3.92;2.33;;;6.20;80.20;;;;;;5007123;28;20049;-86
2020/12/28 12:40:59;;;;;;;4.20;1.98;;;6.20;80.20;;;;;;4992291;28;20061;-86
2020/12/28 12:43:24;;;;;;;2.78;1.52;;;6.20;80.10;;;;;;4999914;28;20030;-88
2020/12/28 12:45:50;;;;;;;2.35;1.95;;;6.30;80.20;;;;;;5013629;28;20090;-87
2020/12/28 12:48:15;;;;;;;3.10;2.28;;;6.30;80.10;;;;;;4987271;28;20030;-87
2020/12/28 12:50:41;;;;;;;3.03;1.90;;;6.30;79.90;;;;;;5001194;28;20033;-87
2020/12/28 12:53:07;;;;;;;2.97;2.00;;;6.40;79.80;;;;;;5005083;28;20029;-88
2020/12/28 12:55:41;;;;;;;4.18;2.33;;;6.60;79.20;;;;;;4989687;28;20057;-88
2020/12/28 12:58:07;;;;;;;2.78;1.77;;;6.60;78.90;;;;;;4991508;28;20064;-87
2020/12/28 13:00:33;;;;;;;6.38;1.90;;;6.90;78.90;;;;;;4991580;28;20353;-87
2020/12/28 13:02:58;;;;;;;2.50;1.75;;;7.20;78.50;;;;;;4991270;28;20033;-87
2020/12/28 13:05:24;;;;;;;3.53;1.60;;;7.40;77.40;;;;;;4988028;28;20026;-87